createdAt,value
2022-07-31T00:02:08.012Z,101668.50
2022-07-31T00:04:34.736Z,101670.22
2022-07-31T00:07:01.755Z,101672.91
2022-07-31T00:09:53.823Z,101668.81
2022-07-31T00:12:17.634Z,101664.91
2022-07-31T00:14:44.913Z,101666.34
2022-07-31T00:17:11.629Z,101662.16
2022-07-31T00:19:38.354Z,101646.13
2022-07-31T00:22:05.142Z,101651.88
2022-07-31T00:24:31.745Z,101658.59
2022-07-31T00:26:58.586Z,101649.19
2022-07-31T00:29:25.229Z,101651.34
2022-07-31T00:31:51.944Z,101640.34
2022-07-31T00:34:18.436Z,101653.53
2022-07-31T00:36:44.983Z,101645.38
2022-07-31T00:39:11.480Z,101649.72
2022-07-31T00:41:43.787Z,101648.28
2022-07-31T00:44:12.317Z,101643.06
2022-07-31T00:46:40.655Z,101632.38
2022-07-31T00:49:10.602Z,101633.53
2022-07-31T00:51:38.957Z,101622.72
2022-07-31T00:54:07.241Z,101633.06
2022-07-31T00:56:34.381Z,101630.66
2022-07-31T00:59:01.445Z,101634.41
2022-07-31T01:01:28.197Z,101628.56
2022-07-31T01:03:54.929Z,101633.50
2022-07-31T01:06:21.789Z,101620.25
2022-07-31T01:08:48.775Z,101623.75
2022-07-31T01:11:18.155Z,101628.41
2022-07-31T01:13:59.574Z,101624.03
2022-07-31T01:16:33.497Z,101634.34
2022-07-31T01:19:05.000Z,101626.69
2022-07-31T01:21:49.767Z,101623.34
2022-07-31T01:24:40.693Z,101623.84
2022-07-31T01:27:25.755Z,101621.66
2022-07-31T01:29:57.035Z,101623.69
2022-07-31T01:32:28.898Z,101623.94
2022-07-31T01:35:02.758Z,101619.44
2022-07-31T01:37:36.681Z,101625.91
2022-07-31T01:40:13.005Z,101631.41
2022-07-31T01:42:42.492Z,101631.25
2022-07-31T01:45:12.696Z,101626.03
2022-07-31T01:47:41.754Z,101635.34
2022-07-31T01:50:41.864Z,101629.84
2022-07-31T01:52:58.966Z,101626.78
2022-07-31T01:55:27.083Z,101624.53
2022-07-31T01:57:55.713Z,101621.19
2022-07-31T02:00:33.719Z,101621.03
2022-07-31T02:03:09.473Z,101615.19
2022-07-31T02:05:38.093Z,101622.31
2022-07-31T02:08:06.425Z,101616.81
2022-07-31T02:10:33.426Z,101604.47
2022-07-31T02:13:02.762Z,101609.16
2022-07-31T02:15:31.596Z,101608.50
2022-07-31T02:18:00.073Z,101615.31
2022-07-31T02:20:28.070Z,101608.50
2022-07-31T02:22:55.581Z,101605.03
2022-07-31T02:25:22.144Z,101605.03
2022-07-31T02:27:57.158Z,101602.47
2022-07-31T02:30:38.959Z,101605.00
2022-07-31T02:33:09.188Z,101603.44
2022-07-31T02:35:36.423Z,101608.00
2022-07-31T02:38:04.210Z,101612.91
2022-07-31T02:40:30.798Z,101610.84
2022-07-31T02:42:57.545Z,101605.22
2022-07-31T02:45:24.720Z,101599.03
2022-07-31T02:47:51.619Z,101605.13
2022-07-31T02:50:20.309Z,101602.94
2022-07-31T02:52:47.510Z,101601.88
2022-07-31T02:55:14.098Z,101605.22
2022-07-31T02:57:41.473Z,101598.19
2022-07-31T03:00:27.126Z,101603.16
2022-07-31T03:02:54.825Z,101593.28
2022-07-31T03:05:22.190Z,101590.81
2022-07-31T03:07:49.399Z,101585.03
2022-07-31T03:10:15.987Z,101589.72
2022-07-31T03:12:51.595Z,101587.34
2022-07-31T03:15:22.133Z,101587.84
2022-07-31T03:17:50.007Z,101586.78
2022-07-31T03:20:16.777Z,101585.31
2022-07-31T03:22:43.858Z,101577.78
2022-07-31T03:25:11.306Z,101581.22
2022-07-31T03:27:56.506Z,101594.63
2022-07-31T03:30:27.457Z,101584.28
2022-07-31T03:32:55.707Z,101586.66
2022-07-31T03:35:24.062Z,101585.00
2022-07-31T03:37:51.175Z,101582.22
2022-07-31T03:40:17.699Z,101576.59
2022-07-31T03:42:44.833Z,101576.13
2022-07-31T03:45:12.812Z,101578.06
2022-07-31T03:47:39.706Z,101574.13
2022-07-31T03:50:08.002Z,101581.44
2022-07-31T03:52:35.358Z,101584.28
2022-07-31T03:55:02.194Z,101574.16
2022-07-31T03:57:34.016Z,101578.09
2022-07-31T04:00:03.262Z,101573.53
2022-07-31T04:02:31.872Z,101581.38
2022-07-31T04:04:59.436Z,101581.84
2022-07-31T04:07:26.095Z,101581.50
2022-07-31T04:09:52.743Z,101587.09
2022-07-31T04:12:19.393Z,101578.81
2022-07-31T04:14:45.885Z,101580.94
2022-07-31T04:17:12.852Z,101584.97
2022-07-31T04:19:39.445Z,101592.56
2022-07-31T04:22:06.642Z,101587.75
2022-07-31T04:24:33.715Z,101588.44
2022-07-31T04:27:00.290Z,101593.19
2022-07-31T04:29:28.783Z,101597.53
2022-07-31T04:31:55.914Z,101598.38
2022-07-31T04:34:22.591Z,101598.22
2022-07-31T04:36:49.222Z,101600.13
2022-07-31T04:39:15.729Z,101586.38
2022-07-31T04:41:42.271Z,101591.88
2022-07-31T04:44:08.860Z,101587.16
2022-07-31T04:46:35.392Z,101586.22
2022-07-31T04:49:01.999Z,101596.03
2022-07-31T04:51:28.599Z,101590.06
2022-07-31T04:53:55.089Z,101588.22
2022-07-31T04:56:33.881Z,101588.66
2022-07-31T04:59:03.002Z,101589.69
2022-07-31T05:01:30.579Z,101590.78
2022-07-31T05:03:57.473Z,101588.78
2022-07-31T05:06:33.142Z,101590.94
2022-07-31T05:08:59.763Z,101582.59
2022-07-31T05:11:26.446Z,101581.38
2022-07-31T05:13:55.849Z,101577.19
2022-07-31T05:16:23.724Z,101567.66
2022-07-31T05:18:51.768Z,101573.81
2022-07-31T05:21:19.063Z,101568.38
2022-07-31T05:23:47.830Z,101570.09
2022-07-31T05:26:15.702Z,101568.59
2022-07-31T05:28:42.466Z,101579.13
2022-07-31T05:31:10.586Z,101582.00
2022-07-31T05:33:37.116Z,101573.41
2022-07-31T05:36:04.515Z,101576.22
2022-07-31T05:38:31.155Z,101578.06
2022-07-31T05:40:57.722Z,101575.66
2022-07-31T05:43:24.409Z,101564.56
2022-07-31T05:45:51.308Z,101565.78
2022-07-31T05:48:18.166Z,101561.47
2022-07-31T05:50:46.227Z,101562.97
2022-07-31T05:53:16.954Z,101566.38
2022-07-31T05:55:45.656Z,101575.50
2022-07-31T05:58:16.589Z,101574.44
2022-07-31T06:00:44.873Z,101580.00
2022-07-31T06:03:14.538Z,101575.91
2022-07-31T06:05:41.590Z,101582.81
2022-07-31T06:08:09.823Z,101582.25
2022-07-31T06:10:37.392Z,101575.06
2022-07-31T06:13:05.419Z,101565.72
2022-07-31T06:15:36.252Z,101573.53
2022-07-31T06:18:03.771Z,101575.16
2022-07-31T06:20:30.614Z,101577.97
2022-07-31T06:22:57.423Z,101578.53
2022-07-31T06:25:24.157Z,101577.97
2022-07-31T06:27:56.521Z,101581.59
2022-07-31T06:30:26.843Z,101582.97
2022-07-31T06:32:53.398Z,101586.28
2022-07-31T06:35:19.958Z,101577.47
2022-07-31T06:37:46.573Z,101572.22
2022-07-31T06:40:13.458Z,101573.63
2022-07-31T06:42:40.243Z,101571.38
2022-07-31T06:45:07.294Z,101570.84
2022-07-31T06:47:34.175Z,101579.97
2022-07-31T06:50:00.850Z,101577.47
2022-07-31T06:52:27.402Z,101572.50
2022-07-31T06:54:54.162Z,101572.78
2022-07-31T06:57:20.750Z,101573.06
2022-07-31T06:59:47.310Z,101570.59
2022-07-31T07:02:14.428Z,101566.97
2022-07-31T07:05:06.290Z,101566.16
2022-07-31T07:07:32.173Z,101557.50
2022-07-31T07:09:59.630Z,101557.53
2022-07-31T07:12:26.932Z,101565.00
2022-07-31T07:14:54.992Z,101560.84
2022-07-31T07:17:23.818Z,101555.56
2022-07-31T07:19:54.645Z,101555.25
2022-07-31T07:22:31.319Z,101559.13
2022-07-31T07:24:58.736Z,101556.06
2022-07-31T07:27:25.829Z,101550.53
2022-07-31T07:29:52.330Z,101558.47
2022-07-31T07:32:18.890Z,101556.22
2022-07-31T07:34:45.358Z,101547.69
2022-07-31T07:37:12.549Z,101553.44
2022-07-31T07:39:39.054Z,101556.19
2022-07-31T07:42:05.931Z,101553.72
2022-07-31T07:44:32.724Z,101561.47
2022-07-31T07:46:59.249Z,101557.84
2022-07-31T07:49:25.850Z,101551.47
2022-07-31T07:52:09.710Z,101549.19
2022-07-31T07:54:36.330Z,101555.56
2022-07-31T07:57:03.014Z,101561.53
2022-07-31T07:59:29.511Z,101556.97
2022-07-31T08:01:56.460Z,101555.31
2022-07-31T08:04:22.981Z,101556.59
2022-07-31T08:06:49.485Z,101551.31
2022-07-31T08:09:16.074Z,101553.53
2022-07-31T08:11:42.683Z,101545.22
2022-07-31T08:14:09.639Z,101553.53
2022-07-31T08:16:36.161Z,101541.84
2022-07-31T08:19:03.006Z,101548.31
2022-07-31T08:21:29.607Z,101554.28
2022-07-31T08:23:56.165Z,101545.47
2022-07-31T08:26:22.810Z,101555.56
2022-07-31T08:28:53.929Z,101549.59
2022-07-31T08:31:22.627Z,101545.94
2022-07-31T08:33:49.156Z,101543.06
2022-07-31T08:36:15.802Z,101544.56
2022-07-31T08:38:42.390Z,101549.66
2022-07-31T08:41:08.922Z,101556.06
2022-07-31T08:44:03.324Z,101545.03
2022-07-31T08:46:22.679Z,101551.66
2022-07-31T08:48:54.549Z,101547.75
2022-07-31T08:51:23.728Z,101538.53
2022-07-31T08:53:51.650Z,101547.88
2022-07-31T08:56:19.527Z,101542.56
2022-07-31T08:58:46.928Z,101539.66
2022-07-31T09:01:14.305Z,101533.81
2022-07-31T09:03:40.856Z,101534.22
2022-07-31T09:06:07.366Z,101525.28
2022-07-31T09:08:36.071Z,101522.50
2022-07-31T09:11:08.603Z,101528.13
2022-07-31T09:13:40.191Z,101533.84
2022-07-31T09:16:07.094Z,101527.22
2022-07-31T09:18:33.960Z,101524.03
2022-07-31T09:21:04.368Z,101520.09
2022-07-31T09:23:34.986Z,101523.88
2022-07-31T09:26:04.173Z,101521.91
2022-07-31T09:28:41.056Z,101520.56
2022-07-31T09:31:09.964Z,101509.06
2022-07-31T09:33:42.306Z,101510.19
2022-07-31T09:36:12.234Z,101508.00
2022-07-31T09:38:43.571Z,101514.41
2022-07-31T09:41:56.360Z,101501.44
2022-07-31T09:44:09.412Z,101493.16
2022-07-31T09:46:45.093Z,101484.50
2022-07-31T09:49:12.372Z,101485.97
2022-07-31T09:51:43.933Z,101491.13
2022-07-31T09:54:22.041Z,101486.59
2022-07-31T09:56:50.221Z,101482.09
2022-07-31T09:59:17.309Z,101484.56
2022-07-31T10:01:48.639Z,101486.41
2022-07-31T10:04:17.745Z,101483.91
2022-07-31T10:06:47.337Z,101482.78
2022-07-31T10:09:15.344Z,101485.78
2022-07-31T10:11:42.651Z,101476.72
2022-07-31T10:14:13.116Z,101471.19
2022-07-31T10:16:42.088Z,101467.81
2022-07-31T10:19:12.721Z,101457.91
2022-07-31T10:21:47.216Z,101462.34
2022-07-31T10:24:13.864Z,101459.69
2022-07-31T10:26:59.678Z,101459.44
2022-07-31T10:29:27.433Z,101454.22
2022-07-31T10:31:59.587Z,101454.66
2022-07-31T10:34:26.843Z,101450.72
2022-07-31T10:36:58.801Z,101446.25
2022-07-31T10:39:38.934Z,101449.06
2022-07-31T10:42:15.040Z,101442.34
2022-07-31T10:44:47.056Z,101436.94
2022-07-31T10:47:17.907Z,101429.91
2022-07-31T10:49:49.413Z,101430.56
2022-07-31T10:52:32.904Z,101435.81
2022-07-31T10:55:01.704Z,101433.97
2022-07-31T10:57:33.687Z,101433.88
2022-07-31T11:00:14.560Z,101434.97
2022-07-31T11:02:41.313Z,101433.81
2022-07-31T11:05:23.641Z,101431.69
2022-07-31T11:08:10.446Z,101433.53
2022-07-31T11:10:36.975Z,101425.47
2022-07-31T11:13:06.026Z,101429.03
2022-07-31T11:15:33.010Z,101417.38
2022-07-31T11:18:23.577Z,101413.78
2022-07-31T11:21:38.217Z,101407.38
2022-07-31T11:23:55.603Z,101406.41
2022-07-31T11:26:33.195Z,101399.16
2022-07-31T11:30:00.934Z,101393.72
2022-07-31T11:31:58.833Z,101396.19
2022-07-31T11:34:26.094Z,101388.88
2022-07-31T11:36:52.722Z,101383.56
2022-07-31T11:39:19.292Z,101382.75
2022-07-31T11:41:55.010Z,101377.59
2022-07-31T11:44:22.156Z,101389.00
2022-07-31T11:46:51.277Z,101386.69
2022-07-31T11:49:41.780Z,101380.19
2022-07-31T11:52:31.091Z,101372.31
2022-07-31T11:55:09.656Z,101371.44
2022-07-31T11:57:51.143Z,101366.09
2022-07-31T12:00:29.161Z,101362.47
2022-07-31T12:02:57.389Z,101360.94
2022-07-31T12:05:38.036Z,101359.16
2022-07-31T12:08:18.810Z,101357.75
2022-07-31T12:10:46.528Z,101354.44
2022-07-31T12:13:19.631Z,101352.53
2022-07-31T12:16:01.549Z,101346.44
2022-07-31T12:18:29.760Z,101338.19
2022-07-31T12:20:59.882Z,101335.72
2022-07-31T12:23:38.777Z,101340.03
2022-07-31T12:26:10.715Z,101319.13
2022-07-31T12:28:37.601Z,101320.47
2022-07-31T12:31:04.633Z,101313.53
2022-07-31T12:33:43.601Z,101306.44
2022-07-31T12:36:17.408Z,101309.25
2022-07-31T12:38:47.722Z,101304.69
2022-07-31T12:41:15.212Z,101303.38
2022-07-31T12:43:51.064Z,101312.22
2022-07-31T12:46:19.278Z,101306.44
2022-07-31T12:48:46.365Z,101302.69
2022-07-31T12:51:13.556Z,101294.19
2022-07-31T12:53:40.117Z,101284.13
2022-07-31T12:56:12.205Z,101287.56
2022-07-31T12:58:38.726Z,101292.66
2022-07-31T13:01:05.291Z,101282.97
2022-07-31T13:03:45.323Z,101290.19
2022-07-31T13:06:13.399Z,101286.22
2022-07-31T13:08:39.927Z,101280.16
2022-07-31T13:11:06.405Z,101276.84
2022-07-31T13:13:32.904Z,101278.03
2022-07-31T13:15:59.435Z,101264.06
2022-07-31T13:18:25.971Z,101271.47
2022-07-31T13:20:52.459Z,101270.31
2022-07-31T13:23:21.556Z,101269.50
2022-07-31T13:25:48.455Z,101260.44
2022-07-31T13:28:15.402Z,101262.78
2022-07-31T13:30:41.910Z,101266.38
2022-07-31T13:33:08.642Z,101257.19
2022-07-31T13:35:35.143Z,101268.53
2022-07-31T13:38:01.807Z,101262.13
2022-07-31T13:40:47.175Z,101262.91
2022-07-31T13:43:13.822Z,101261.13
2022-07-31T13:45:40.544Z,101260.13
2022-07-31T13:48:09.594Z,101258.97
2022-07-31T13:50:37.755Z,101253.22
2022-07-31T13:53:04.670Z,101255.19
2022-07-31T13:55:31.498Z,101249.44
2022-07-31T13:57:59.662Z,101247.63
2022-07-31T14:00:28.593Z,101251.59
2022-07-31T14:02:55.093Z,101253.03
2022-07-31T14:05:21.656Z,101247.94
2022-07-31T14:07:52.075Z,101248.06
2022-07-31T14:10:20.832Z,101245.44
2022-07-31T14:12:48.442Z,101242.41
2022-07-31T14:15:15.278Z,101243.16
2022-07-31T14:17:41.969Z,101246.47
2022-07-31T14:20:09.314Z,101237.41
2022-07-31T14:22:36.021Z,101248.81
2022-07-31T14:25:02.730Z,101251.72
2022-07-31T14:27:29.308Z,101247.09
2022-07-31T14:29:56.112Z,101253.50
2022-07-31T14:32:23.273Z,101253.63
2022-07-31T14:34:50.388Z,101253.06
2022-07-31T14:37:17.467Z,101253.66
2022-07-31T14:39:44.357Z,101254.81
2022-07-31T14:42:11.289Z,101262.09
2022-07-31T14:44:41.672Z,101269.28
2022-07-31T14:47:09.366Z,101263.41
2022-07-31T14:50:07.404Z,101264.56
2022-07-31T14:52:22.894Z,101269.94
2022-07-31T14:54:49.651Z,101281.69
2022-07-31T14:57:20.149Z,101278.25
2022-07-31T14:59:48.863Z,101285.00
2022-07-31T15:02:19.896Z,101279.00
2022-07-31T15:04:48.567Z,101284.03
2022-07-31T15:07:34.368Z,101277.88
2022-07-31T15:10:05.794Z,101281.78
2022-07-31T15:12:32.440Z,101280.50
2022-07-31T15:14:59.284Z,101280.81
2022-07-31T15:17:26.153Z,101271.31
2022-07-31T15:19:52.772Z,101276.81
2022-07-31T15:22:19.758Z,101281.25
2022-07-31T15:24:48.828Z,101270.34
2022-07-31T15:27:16.211Z,101270.81
2022-07-31T15:30:05.423Z,101262.63
2022-07-31T15:32:29.754Z,101279.06
2022-07-31T15:34:56.333Z,101267.75
2022-07-31T15:37:22.845Z,101273.78
2022-07-31T15:40:01.964Z,101275.13
2022-07-31T15:42:31.418Z,101266.09
2022-07-31T15:44:57.959Z,101268.00
2022-07-31T15:47:24.484Z,101265.75
2022-07-31T15:49:51.038Z,101269.72
2022-07-31T15:52:19.014Z,101266.66
2022-07-31T15:54:46.495Z,101260.44
2022-07-31T15:57:13.585Z,101261.38
2022-07-31T15:59:41.119Z,101266.66
2022-07-31T16:02:07.627Z,101254.31
2022-07-31T16:04:35.105Z,101254.75
2022-07-31T16:08:33.047Z,101253.88
2022-07-31T16:10:02.648Z,101263.22
2022-07-31T16:12:30.661Z,101254.94
2022-07-31T16:14:57.291Z,101252.78
2022-07-31T16:17:23.834Z,101248.25
2022-07-31T16:19:50.376Z,101250.03
2022-07-31T16:22:16.875Z,101256.41
2022-07-31T16:24:45.363Z,101248.28
2022-07-31T16:27:11.861Z,101248.28
2022-07-31T16:29:59.009Z,101246.28
2022-07-31T16:32:25.834Z,101243.56
2022-07-31T16:34:55.071Z,101244.53
2022-07-31T16:37:52.197Z,101242.56
2022-07-31T16:40:30.490Z,101238.44
2022-07-31T16:43:49.626Z,101235.72
2022-07-31T16:45:50.253Z,101226.00
2022-07-31T16:48:17.032Z,101222.97
2022-07-31T16:50:43.517Z,101225.59
2022-07-31T16:53:10.033Z,101226.94
2022-07-31T16:56:01.288Z,101225.41
2022-07-31T16:58:28.583Z,101231.34
2022-07-31T17:00:55.373Z,101208.59
2022-07-31T17:04:00.825Z,101222.25
2022-07-31T17:06:10.360Z,101230.88
2022-07-31T17:08:38.207Z,101234.25
2022-07-31T17:11:05.197Z,101231.78
2022-07-31T17:13:31.757Z,101225.16
2022-07-31T17:15:58.257Z,101226.28
2022-07-31T17:18:25.432Z,101229.63
2022-07-31T17:20:55.845Z,101227.44
2022-07-31T17:23:42.938Z,101224.16
2022-07-31T17:26:10.708Z,101218.31
2022-07-31T17:28:48.429Z,101212.56
2022-07-31T17:31:14.927Z,101230.84
2022-07-31T17:33:49.627Z,101219.28
2022-07-31T17:36:28.430Z,101218.19
2022-07-31T17:38:55.487Z,101208.25
2022-07-31T17:41:25.238Z,101211.03
2022-07-31T17:43:53.677Z,101205.81
2022-07-31T17:46:21.968Z,101200.56
2022-07-31T17:48:55.879Z,101206.66
2022-07-31T17:51:22.565Z,101204.97
2022-07-31T17:54:00.388Z,101197.59
2022-07-31T17:56:27.148Z,101199.78
2022-07-31T17:58:55.806Z,101211.09
2022-07-31T18:01:27.057Z,101203.41
2022-07-31T18:03:55.462Z,101199.78
2022-07-31T18:06:21.986Z,101197.03
2022-07-31T18:08:48.465Z,101196.78
2022-07-31T18:11:15.106Z,101192.38
2022-07-31T18:13:48.306Z,101190.16
2022-07-31T18:16:18.771Z,101189.66
2022-07-31T18:18:45.773Z,101177.47
2022-07-31T18:21:12.432Z,101188.53
2022-07-31T18:23:47.351Z,101182.47
2022-07-31T18:26:14.468Z,101184.41
2022-07-31T18:28:40.979Z,101187.44
2022-07-31T18:31:13.215Z,101181.09
2022-07-31T18:33:54.287Z,101185.81
2022-07-31T18:36:21.327Z,101183.88
2022-07-31T18:38:47.989Z,101185.81
2022-07-31T18:41:14.860Z,101173.69
2022-07-31T18:43:41.374Z,101173.69
2022-07-31T18:46:07.945Z,101180.03
2022-07-31T18:48:34.834Z,101172.00
2022-07-31T18:51:05.315Z,101164.28
2022-07-31T18:53:33.370Z,101166.47
2022-07-31T18:55:59.952Z,101165.69
2022-07-31T18:58:26.586Z,101161.81
2022-07-31T19:00:55.260Z,101160.94
2022-07-31T19:03:23.493Z,101169.78
2022-07-31T19:05:52.287Z,101170.34
2022-07-31T19:08:20.198Z,101161.19
2022-07-31T19:10:49.493Z,101168.41
2022-07-31T19:13:18.015Z,101162.63
2022-07-31T19:15:47.797Z,101167.84
2022-07-31T19:18:15.366Z,101165.38
2022-07-31T19:20:59.881Z,101167.63
2022-07-31T19:23:31.891Z,101172.81
2022-07-31T19:26:03.573Z,101162.34
2022-07-31T19:28:32.498Z,101157.09
2022-07-31T19:30:59.578Z,101159.88
2022-07-31T19:33:26.463Z,101165.09
2022-07-31T19:36:00.407Z,101156.81
2022-07-31T19:38:28.669Z,101162.09
2022-07-31T19:40:55.433Z,101159.88
2022-07-31T19:43:22.196Z,101154.94
2022-07-31T19:46:00.534Z,101158.19
2022-07-31T19:48:36.683Z,101156.03
2022-07-31T19:51:03.820Z,101157.97
2022-07-31T19:53:30.419Z,101157.69
2022-07-31T19:55:57.544Z,101156.00
2022-07-31T19:58:24.069Z,101154.38
2022-07-31T20:00:50.644Z,101161.25
2022-07-31T20:03:17.407Z,101151.59
2022-07-31T20:05:43.981Z,101154.88
2022-07-31T20:08:10.585Z,101157.13
2022-07-31T20:10:37.235Z,101151.59
2022-07-31T20:13:04.002Z,101153.84
2022-07-31T20:15:51.234Z,101145.81
2022-07-31T20:18:26.746Z,101146.59
2022-07-31T20:21:07.406Z,101144.97
2022-07-31T20:23:38.087Z,101146.38
2022-07-31T20:26:06.191Z,101143.88
2022-07-31T20:28:32.725Z,101138.38
2022-07-31T20:30:59.317Z,101137.25
2022-07-31T20:33:25.793Z,101137.25
2022-07-31T20:35:52.576Z,101133.38
2022-07-31T20:38:20.653Z,101143.34
2022-07-31T20:40:53.739Z,101144.19
2022-07-31T20:43:25.818Z,101134.75
2022-07-31T20:45:53.538Z,101136.44
2022-07-31T20:48:24.613Z,101130.09
2022-07-31T20:50:52.769Z,101132.56
2022-07-31T20:53:21.181Z,101128.13
2022-07-31T20:55:50.135Z,101129.19
2022-07-31T20:58:19.204Z,101131.19
2022-07-31T21:00:47.840Z,101123.19
2022-07-31T21:03:15.046Z,101128.44
2022-07-31T21:05:41.753Z,101126.75
2022-07-31T21:08:08.784Z,101122.09
2022-07-31T21:10:36.437Z,101127.50
2022-07-31T21:13:03.548Z,101126.75
2022-07-31T21:15:43.275Z,101130.53
2022-07-31T21:18:18.612Z,101126.19
2022-07-31T21:20:53.243Z,101130.59
2022-07-31T21:23:29.205Z,101124.28
2022-07-31T21:25:57.372Z,101129.50
2022-07-31T21:28:26.022Z,101120.13
2022-07-31T21:30:55.806Z,101126.75
2022-07-31T21:33:24.485Z,101126.75
2022-07-31T21:35:51.637Z,101115.44
2022-07-31T21:38:19.132Z,101126.75
2022-07-31T21:40:47.230Z,101123.47
2022-07-31T21:43:16.741Z,101126.75
2022-07-31T21:45:50.458Z,101131.19
2022-07-31T21:48:23.236Z,101129.00
2022-07-31T21:50:50.044Z,101130.56
2022-07-31T21:53:16.725Z,101125.34
2022-07-31T21:55:43.280Z,101127.31
2022-07-31T21:58:09.973Z,101116.81
2022-07-31T22:00:37.086Z,101116.00
2022-07-31T22:03:04.332Z,101115.44
2022-07-31T22:05:50.005Z,101111.59
2022-07-31T22:08:17.055Z,101120.16
2022-07-31T22:10:43.786Z,101115.19
2022-07-31T22:13:10.482Z,101110.22
2022-07-31T22:15:58.386Z,101112.47
2022-07-31T22:18:26.409Z,101112.19
2022-07-31T22:20:53.686Z,101113.28
2022-07-31T22:23:20.523Z,101117.72
2022-07-31T22:25:49.146Z,101120.19
2022-07-31T22:28:18.941Z,101113.88
2022-07-31T22:30:45.826Z,101121.31
2022-07-31T22:33:12.910Z,101118.84
2022-07-31T22:35:40.886Z,101121.59
2022-07-31T22:38:08.650Z,101125.16
2022-07-31T22:40:35.363Z,101114.66
2022-07-31T22:43:02.601Z,101125.13
2022-07-31T22:45:30.145Z,101128.69
2022-07-31T22:47:57.556Z,101122.91
2022-07-31T22:50:24.486Z,101122.63
2022-07-31T22:52:51.130Z,101128.09
2022-07-31T22:55:17.807Z,101130.06
2022-07-31T22:57:44.976Z,101129.53
2022-07-31T23:00:14.094Z,101136.88
2022-07-31T23:02:42.210Z,101133.38
2022-07-31T23:05:10.091Z,101128.41
2022-07-31T23:07:37.377Z,101133.13
2022-07-31T23:10:06.078Z,101140.56
2022-07-31T23:12:32.719Z,101139.19
2022-07-31T23:14:59.281Z,101144.16
2022-07-31T23:17:25.855Z,101132.84
2022-07-31T23:19:53.905Z,101141.69
2022-07-31T23:22:30.875Z,101135.59
2022-07-31T23:25:02.044Z,101146.38
2022-07-31T23:27:28.700Z,101139.75
2022-07-31T23:29:55.328Z,101131.75
2022-07-31T23:32:21.834Z,101128.75
2022-07-31T23:34:48.372Z,101140.56
2022-07-31T23:37:14.849Z,101134.19
2022-07-31T23:39:41.421Z,101132.28
2022-07-31T23:42:26.690Z,101132.81
2022-07-31T23:44:53.307Z,101127.88
2022-07-31T23:47:19.977Z,101125.09
2022-07-31T23:49:47.780Z,101129.53
2022-07-31T23:52:14.349Z,101133.34
2022-07-31T23:54:40.880Z,101131.47
2022-07-31T23:57:07.387Z,101129.53
2022-07-31T23:59:33.944Z,101130.03
